Time;durP1;ratioP1;P1;durP2;ratioP2;P2;SDS_P1;SDS_P2;PMS_P1;PMS_P2;Temp;Humidity;BMP_temperature;BMP_pressure;BME280_temperature;BME280_humidity;BME280_pressure;Samples;Min_cycle;Max_cycle;Signal;HPM_P1;HPM_P2
2021/12/08 00:00:44;;;;;;;30.25;16.15;;;22.60;39.10;;;;;;6144342;28;84046;-73
2021/12/08 00:03:45;;;;;;;28.00;16.17;;;22.60;38.80;;;;;;6155669;28;84998;-75
2021/12/08 00:06:45;;;;;;;29.05;16.08;;;22.50;38.50;;;;;;6151519;28;83467;-74
2021/12/08 00:09:49;;;;;;;27.08;15.80;;;22.60;38.90;;;;;;6154924;28;84895;-72
2021/12/08 00:16:02;;;;;;;28.98;15.68;;;22.50;38.30;;;;;;6156935;28;83108;-74
2021/12/08 00:19:03;;;;;;;28.15;15.07;;;22.50;38.30;;;;;;6152279;28;84593;-74
2021/12/08 00:22:04;;;;;;;28.08;15.90;;;22.60;38.70;;;;;;6154264;28;83314;-75
2021/12/08 00:25:04;;;;;;;27.00;15.20;;;22.50;38.80;;;;;;6157483;28;84284;-73
2021/12/08 00:28:05;;;;;;;24.13;14.45;;;22.50;38.70;;;;;;6149132;28;84094;-72
2021/12/08 00:31:06;;;;;;;27.63;15.30;;;22.50;38.90;;;;;;6148937;28;84842;-72
2021/12/08 00:34:06;;;;;;;24.40;14.20;;;22.60;38.80;;;;;;6153255;28;84797;-72
2021/12/08 00:37:07;;;;;;;26.75;15.10;;;22.60;38.90;;;;;;6149580;28;88296;-72
2021/12/08 00:40:07;;;;;;;28.65;16.20;;;22.60;38.50;;;;;;6155211;28;83937;-72
2021/12/08 00:43:08;;;;;;;28.77;15.57;;;22.60;39.00;;;;;;6157020;28;83517;-70
2021/12/08 00:46:09;;;;;;;31.23;16.55;;;22.60;38.90;;;;;;6154346;28;83037;-77
2021/12/08 00:49:11;;;;;;;29.60;15.43;;;22.60;39.30;;;;;;6152133;28;84176;-78
2021/12/08 00:52:13;;;;;;;24.52;13.98;;;22.60;39.10;;;;;;6151624;28;84012;-75
2021/12/08 00:55:14;;;;;;;30.13;15.45;;;22.60;39.10;;;;;;6153642;28;83539;-75
2021/12/08 00:58:14;;;;;;;29.83;14.68;;;22.60;39.10;;;;;;6150954;28;83879;-75
2021/12/08 01:01:15;;;;;;;26.50;15.05;;;22.60;39.10;;;;;;6153785;28;84125;-73
2021/12/08 01:04:15;;;;;;;23.88;13.93;;;22.60;39.20;;;;;;6153195;28;83607;-73
2021/12/08 01:07:16;;;;;;;26.27;14.75;;;22.60;39.30;;;;;;6152577;28;82903;-71
2021/12/08 01:10:16;;;;;;;26.60;13.80;;;22.60;39.00;;;;;;6150700;28;83025;-70
2021/12/08 01:13:17;;;;;;;27.63;14.07;;;22.60;39.50;;;;;;6154706;28;83079;-70
2021/12/08 01:16:18;;;;;;;26.83;14.20;;;22.60;39.50;;;;;;6149536;28;82985;-70
2021/12/08 01:19:18;;;;;;;29.48;14.98;;;22.60;39.50;;;;;;6153124;28;83510;-69
2021/12/08 01:22:19;;;;;;;28.77;14.98;;;22.60;39.50;;;;;;6149797;28;83316;-69
2021/12/08 01:25:20;;;;;;;28.00;14.13;;;22.60;39.10;;;;;;6150349;28;83105;-69
2021/12/08 01:28:22;;;;;;;25.67;13.68;;;22.60;39.00;;;;;;6149598;28;83858;-69
2021/12/08 01:31:22;;;;;;;27.63;13.68;;;22.60;39.10;;;;;;6151747;28;83495;-70
2021/12/08 01:34:23;;;;;;;26.75;14.55;;;22.60;39.20;;;;;;6154196;28;83062;-71
2021/12/08 01:37:24;;;;;;;28.45;14.07;;;22.60;39.40;;;;;;6154765;28;83135;-69
2021/12/08 01:40:24;;;;;;;29.38;14.52;;;22.60;39.20;;;;;;6150909;28;83951;-69
2021/12/08 01:43:39;;;;;;;27.10;13.80;;;22.60;39.20;;;;;;6153182;28;83559;-69
2021/12/08 01:46:39;;;;;;;27.30;13.65;;;22.60;39.10;;;;;;6148748;28;83490;-70
2021/12/08 01:49:40;;;;;;;24.95;13.38;;;22.60;39.10;;;;;;6146710;28;83295;-69
2021/12/08 01:52:40;;;;;;;24.98;13.50;;;22.50;39.30;;;;;;6155004;28;82891;-68
2021/12/08 01:55:41;;;;;;;23.48;12.65;;;22.50;39.60;;;;;;6149743;28;83553;-72
2021/12/08 01:58:41;;;;;;;25.98;14.23;;;22.50;39.30;;;;;;6144871;28;83269;-70
2021/12/08 02:01:42;;;;;;;24.25;13.63;;;22.50;38.60;;;;;;6154197;28;83075;-68
2021/12/08 02:04:43;;;;;;;31.08;14.88;;;22.60;39.00;;;;;;6148416;28;85613;-69
2021/12/08 02:07:43;;;;;;;29.60;15.40;;;22.50;38.90;;;;;;6154018;28;83959;-69
2021/12/08 02:10:44;;;;;;;31.45;15.32;;;22.50;38.40;;;;;;6139051;28;83215;-72
2021/12/08 02:13:44;;;;;;;28.00;15.50;;;22.50;38.50;;;;;;6153701;28;83233;-72
2021/12/08 02:16:45;;;;;;;27.30;13.68;;;22.50;38.40;;;;;;6151655;28;84620;-73
2021/12/08 02:19:46;;;;;;;27.23;14.48;;;22.50;38.40;;;;;;6153494;28;83368;-69
2021/12/08 02:22:46;;;;;;;25.27;14.00;;;22.50;38.20;;;;;;6154634;28;84723;-69
2021/12/08 02:25:49;;;;;;;23.42;13.50;;;22.50;38.30;;;;;;6152485;28;84114;-69
2021/12/08 02:28:50;;;;;;;27.50;13.35;;;22.50;38.20;;;;;;6137703;28;84359;-69
2021/12/08 02:32:04;;;;;;;24.90;13.55;;;22.50;37.90;;;;;;6137201;28;83355;-71
2021/12/08 02:48:21;;;;;;;24.05;13.32;;;22.50;38.00;;;;;;6156436;28;83185;-70
2021/12/08 02:51:22;;;;;;;26.08;13.85;;;22.40;38.10;;;;;;6154419;28;82790;-71
2021/12/08 02:54:22;;;;;;;26.77;13.82;;;22.40;38.00;;;;;;6152411;28;83248;-72
2021/12/08 02:57:23;;;;;;;26.50;13.77;;;22.40;38.10;;;;;;6146085;28;84173;-71
2021/12/08 03:00:25;;;;;;;24.45;12.82;;;22.40;37.70;;;;;;6145557;28;83373;-71
2021/12/08 03:03:26;;;;;;;27.90;13.82;;;22.30;37.70;;;;;;6153310;28;82936;-72
2021/12/08 03:06:26;;;;;;;28.90;14.23;;;22.40;37.60;;;;;;6154384;28;83104;-71
2021/12/08 03:09:27;;;;;;;28.50;14.13;;;22.40;37.70;;;;;;6149924;28;83674;-72
2021/12/08 03:12:27;;;;;;;24.85;13.30;;;22.30;37.50;;;;;;6144134;28;82816;-72
2021/12/08 03:15:28;;;;;;;27.88;14.50;;;22.40;37.50;;;;;;6137989;28;83056;-72
2021/12/08 03:18:32;;;;;;;26.33;13.80;;;22.30;37.40;;;;;;6154193;28;82968;-72
2021/12/08 03:21:33;;;;;;;27.80;13.55;;;22.30;37.70;;;;;;6152298;28;85129;-71
2021/12/08 03:24:36;;;;;;;23.05;12.73;;;22.40;38.30;;;;;;6147213;28;82986;-71
2021/12/08 03:27:44;;;;;;;27.13;13.85;;;22.40;37.50;;;;;;6141507;28;82981;-72
2021/12/08 03:31:20;;;;;;;24.73;13.85;;;22.30;37.20;;;;;;6139855;28;84109;-73
2021/12/08 03:34:12;;;;;;;26.77;13.68;;;22.30;37.20;;;;;;6150224;28;89947;-73
2021/12/08 03:37:12;;;;;;;24.85;12.88;;;22.30;37.30;;;;;;6156288;28;82895;-72
2021/12/08 03:40:13;;;;;;;23.75;12.55;;;22.30;36.90;;;;;;6158102;28;83088;-71
2021/12/08 03:43:14;;;;;;;22.77;12.77;;;22.30;37.60;;;;;;6155694;28;82984;-71
2021/12/08 03:46:16;;;;;;;29.13;14.40;;;22.30;36.90;;;;;;6155772;28;83350;-72
2021/12/08 03:49:17;;;;;;;26.60;14.00;;;22.30;36.90;;;;;;6153192;28;83100;-72
2021/12/08 03:52:17;;;;;;;28.33;13.48;;;22.30;36.90;;;;;;6156648;28;83202;-74
2021/12/08 03:55:18;;;;;;;27.58;14.15;;;22.30;37.10;;;;;;6138588;28;85219;-73
2021/12/08 03:58:21;;;;;;;24.55;13.18;;;22.30;36.90;;;;;;6152279;28;85618;-73
2021/12/08 04:01:21;;;;;;;25.33;13.75;;;22.30;36.70;;;;;;6155039;28;82699;-73
2021/12/08 04:04:26;;;;;;;24.35;12.65;;;22.30;36.50;;;;;;6144232;28;84940;-72
2021/12/08 04:07:27;;;;;;;25.00;12.83;;;22.30;36.60;;;;;;6155273;28;85455;-71
2021/12/08 04:10:27;;;;;;;27.83;13.77;;;22.30;36.50;;;;;;6157583;28;83841;-77
2021/12/08 04:13:28;;;;;;;24.25;11.95;;;22.40;36.60;;;;;;6156752;28;83102;-75
2021/12/08 04:16:28;;;;;;;24.13;13.55;;;22.40;36.50;;;;;;6155271;28;86614;-77
2021/12/08 04:19:29;;;;;;;24.30;11.93;;;22.30;36.50;;;;;;6155632;28;83812;-75
2021/12/08 04:22:29;;;;;;;21.50;11.93;;;22.30;36.40;;;;;;6140184;28;83717;-73
2021/12/08 04:25:30;;;;;;;20.92;11.43;;;22.30;36.50;;;;;;6156972;28;84174;-73
2021/12/08 04:28:30;;;;;;;22.02;11.50;;;22.30;36.70;;;;;;6153872;28;84448;-73
2021/12/08 04:31:31;;;;;;;23.25;12.38;;;22.30;36.60;;;;;;6154853;28;84137;-73
2021/12/08 04:34:33;;;;;;;22.58;12.02;;;22.30;36.60;;;;;;6155606;28;84159;-73
2021/12/08 04:37:33;;;;;;;20.98;11.40;;;22.30;37.00;;;;;;6156081;28;82915;-73
2021/12/08 04:43:51;;;;;;;20.20;11.48;;;22.30;37.10;;;;;;6154691;28;83197;-73
2021/12/08 04:53:08;;;;;;;21.77;11.32;;;22.30;37.00;;;;;;6153562;28;84051;-73
2021/12/08 05:09:06;;;;;;;21.13;10.80;;;22.30;37.30;;;;;;6147703;28;86193;-76
2021/12/08 05:12:07;;;;;;;23.33;11.73;;;22.30;37.40;;;;;;6143777;28;83441;-78
2021/12/08 05:15:07;;;;;;;21.40;10.93;;;22.30;38.00;;;;;;6153292;28;84139;-77
2021/12/08 05:18:08;;;;;;;20.95;11.18;;;22.30;37.80;;;;;;6155029;28;83865;-77
2021/12/08 05:21:09;;;;;;;21.65;11.82;;;22.20;37.40;;;;;;6155122;28;83147;-75
2021/12/08 05:24:09;;;;;;;22.33;11.73;;;22.20;37.80;;;;;;6153251;28;83302;-74
2021/12/08 05:27:10;;;;;;;20.40;11.10;;;22.20;37.50;;;;;;6142566;28;82940;-72
2021/12/08 05:30:10;;;;;;;18.63;10.93;;;22.20;37.60;;;;;;6147901;28;83086;-73
2021/12/08 05:33:11;;;;;;;21.25;12.27;;;22.20;37.60;;;;;;6143870;28;82771;-73
2021/12/08 05:36:11;;;;;;;20.05;11.38;;;22.20;37.80;;;;;;6149523;28;83347;-72
2021/12/08 05:39:12;;;;;;;19.55;11.43;;;22.20;37.30;;;;;;6148804;28;85186;-72
2021/12/08 05:42:12;;;;;;;22.20;11.82;;;22.20;37.50;;;;;;6155620;28;83100;-74
2021/12/08 05:45:13;;;;;;;20.15;11.80;;;22.30;37.20;;;;;;6155873;28;83079;-73
2021/12/08 05:48:13;;;;;;;19.83;10.45;;;22.30;38.30;;;;;;6154516;28;83053;-71
2021/12/08 05:51:14;;;;;;;21.95;11.65;;;22.30;38.90;;;;;;6153298;28;83028;-71
2021/12/08 05:54:14;;;;;;;21.70;10.70;;;22.30;39.20;;;;;;6154183;28;84526;-67
2021/12/08 05:57:15;;;;;;;20.58;10.65;;;22.30;39.50;;;;;;6154850;28;84323;-67
2021/12/08 06:00:15;;;;;;;20.88;10.48;;;22.30;39.60;;;;;;6153153;28;83764;-66
2021/12/08 06:03:17;;;;;;;17.45;9.85;;;22.30;40.20;;;;;;6157984;28;82928;-70
2021/12/08 06:06:18;;;;;;;21.50;10.50;;;22.30;40.40;;;;;;6158016;28;83060;-68
2021/12/08 06:09:18;;;;;;;17.17;9.88;;;22.40;40.80;;;;;;6152887;28;83278;-67
2021/12/08 06:12:19;;;;;;;15.73;8.85;;;22.40;40.60;;;;;;6157028;28;82806;-69
2021/12/08 06:15:19;;;;;;;18.40;8.07;;;22.30;42.20;;;;;;6155574;28;80716;-67
2021/12/08 06:18:22;;;;;;;13.80;7.65;;;22.30;42.90;;;;;;6156804;28;82082;-67
2021/12/08 06:21:23;;;;;;;14.30;7.55;;;22.30;43.60;;;;;;6157795;28;80341;-69
2021/12/08 06:24:23;;;;;;;11.88;6.80;;;22.30;44.80;;;;;;6155894;28;80586;-67
2021/12/08 06:27:24;;;;;;;10.90;6.53;;;22.40;46.10;;;;;;6153305;28;80238;-66
2021/12/08 06:30:24;;;;;;;13.63;7.20;;;22.40;47.40;;;;;;6157871;28;80568;-66
2021/12/08 06:33:26;;;;;;;17.13;6.97;;;22.40;48.90;;;;;;6159935;28;81956;-66
2021/12/08 06:36:27;;;;;;;24.33;7.28;;;22.40;51.40;;;;;;6139120;28;80353;-68
2021/12/08 06:39:27;;;;;;;11.27;6.53;;;22.40;53.50;;;;;;6153632;28;81436;-66
2021/12/08 06:42:28;;;;;;;10.02;5.78;;;22.50;54.00;;;;;;6155398;28;80018;-66
2021/12/08 06:45:28;;;;;;;11.07;6.10;;;22.50;54.40;;;;;;6155561;28;82833;-68
2021/12/08 06:48:29;;;;;;;16.17;6.13;;;22.50;56.10;;;;;;6156218;28;80375;-66
2021/12/08 06:51:29;;;;;;;11.00;6.57;;;22.50;56.90;;;;;;6156059;28;81585;-65
2021/12/08 06:54:30;;;;;;;10.30;5.38;;;22.50;56.40;;;;;;6156845;28;80377;-65
2021/12/08 06:57:30;;;;;;;10.25;5.68;;;22.50;56.20;;;;;;6150826;28;81709;-66
2021/12/08 07:00:46;;;;;;;10.60;6.13;;;22.50;54.80;;;;;;6157054;28;80362;-66
2021/12/08 07:04:06;;;;;;;10.32;5.88;;;22.40;55.10;;;;;;6150967;28;81899;-65
2021/12/08 07:07:11;;;;;;;8.20;5.50;;;22.50;54.10;;;;;;6148929;28;86920;-64
2021/12/08 07:10:11;;;;;;;13.63;5.75;;;22.40;53.70;;;;;;6156925;28;80936;-65
2021/12/08 07:13:12;;;;;;;9.40;5.70;;;22.40;53.40;;;;;;6161216;28;80319;-66
2021/12/08 07:16:12;;;;;;;12.93;6.35;;;22.50;53.10;;;;;;6158727;28;81495;-64
2021/12/08 07:19:22;;;;;;;8.57;5.18;;;22.50;52.50;;;;;;6159072;28;80801;-64
2021/12/08 07:22:24;;;;;;;8.38;5.18;;;22.50;52.30;;;;;;6161218;28;80914;-65
2021/12/08 07:25:25;;;;;;;11.30;6.00;;;22.40;51.90;;;;;;6159160;28;80642;-64
2021/12/08 07:28:26;;;;;;;10.45;6.85;;;22.40;51.00;;;;;;6156316;28;80610;-65
2021/12/08 07:31:26;;;;;;;11.88;6.68;;;22.40;50.80;;;;;;6154949;28;81737;-65
2021/12/08 07:34:27;;;;;;;12.05;6.15;;;22.40;50.90;;;;;;6158070;28;81708;-65
2021/12/08 07:37:27;;;;;;;11.07;6.40;;;22.40;50.20;;;;;;6157105;28;80427;-66
2021/12/08 07:40:28;;;;;;;9.75;6.07;;;22.40;50.20;;;;;;6156860;28;80415;-66
2021/12/08 07:43:28;;;;;;;11.45;6.50;;;22.40;49.70;;;;;;6167333;28;80243;-65
2021/12/08 07:46:29;;;;;;;11.63;6.82;;;22.40;49.50;;;;;;6160280;28;81694;-65
2021/12/08 07:49:30;;;;;;;11.10;6.45;;;22.40;48.60;;;;;;6153391;28;80810;-65
2021/12/08 07:52:30;;;;;;;12.50;6.82;;;22.50;49.20;;;;;;6155254;28;80249;-68
2021/12/08 07:55:31;;;;;;;10.73;6.15;;;22.40;48.30;;;;;;6146187;28;82885;-64
2021/12/08 07:58:31;;;;;;;14.10;7.57;;;22.40;48.60;;;;;;6158471;28;82396;-66
2021/12/08 08:01:32;;;;;;;11.45;6.60;;;22.40;48.60;;;;;;6156773;28;81157;-67
2021/12/08 08:04:33;;;;;;;10.95;5.90;;;22.40;48.00;;;;;;6160410;28;81557;-66
2021/12/08 08:07:33;;;;;;;12.73;6.15;;;22.40;47.80;;;;;;6162156;28;80365;-67
2021/12/08 08:10:35;;;;;;;11.88;6.38;;;22.40;47.80;;;;;;6159693;28;81202;-67
2021/12/08 08:13:36;;;;;;;12.63;6.90;;;22.40;47.40;;;;;;6156678;28;80487;-66
2021/12/08 08:16:37;;;;;;;11.38;7.13;;;22.40;47.60;;;;;;6157644;28;81561;-67
2021/12/08 08:19:43;;;;;;;10.43;5.93;;;22.40;47.40;;;;;;6152540;28;81023;-66
2021/12/08 08:22:43;;;;;;;11.40;6.60;;;22.40;47.40;;;;;;6171372;28;80964;-65
2021/12/08 08:25:44;;;;;;;11.55;6.90;;;22.40;47.20;;;;;;6160000;28;80697;-68
2021/12/08 08:28:47;;;;;;;11.55;6.50;;;22.40;47.00;;;;;;6159514;28;80919;-67
2021/12/08 08:31:53;;;;;;;12.98;6.57;;;22.30;46.90;;;;;;6155243;28;80658;-66
2021/12/08 08:34:53;;;;;;;10.80;6.38;;;22.30;46.90;;;;;;6158973;28;81577;-67
2021/12/08 08:37:54;;;;;;;16.15;8.13;;;22.30;46.90;;;;;;6158715;28;80717;-68
2021/12/08 08:40:54;;;;;;;11.05;7.00;;;22.30;46.90;;;;;;6140547;28;81179;-66
2021/12/08 08:43:55;;;;;;;11.65;6.22;;;22.30;46.60;;;;;;6158955;28;80267;-67
2021/12/08 08:46:56;;;;;;;12.27;6.95;;;22.30;46.80;;;;;;6154916;28;80468;-66
2021/12/08 08:49:56;;;;;;;13.45;7.47;;;22.30;46.60;;;;;;6156013;28;80253;-66
2021/12/08 08:52:57;;;;;;;12.73;6.30;;;22.30;46.90;;;;;;6156617;28;80588;-68
2021/12/08 08:55:57;;;;;;;10.73;6.68;;;22.30;46.90;;;;;;6157990;28;81273;-68
2021/12/08 08:58:58;;;;;;;12.32;7.07;;;22.30;46.60;;;;;;6154932;28;81325;-67
2021/12/08 09:01:58;;;;;;;11.57;6.85;;;22.20;46.40;;;;;;6153639;28;80464;-67
2021/12/08 09:04:59;;;;;;;12.68;6.65;;;22.20;46.20;;;;;;6155293;28;81466;-67
2021/12/08 09:07:59;;;;;;;12.55;7.22;;;22.20;46.10;;;;;;6160636;28;81225;-65
2021/12/08 09:11:00;;;;;;;18.25;5.88;;;22.20;45.90;;;;;;6156742;28;80492;-65
2021/12/08 09:14:01;;;;;;;11.75;6.60;;;22.20;46.00;;;;;;6159789;28;80323;-65
2021/12/08 09:17:02;;;;;;;11.55;6.70;;;22.20;45.80;;;;;;6142462;28;80861;-67
2021/12/08 09:20:03;;;;;;;11.25;7.00;;;22.20;45.60;;;;;;6143052;28;80268;-68
2021/12/08 09:23:04;;;;;;;11.93;6.55;;;22.20;45.70;;;;;;6156789;28;80359;-66
2021/12/08 09:26:05;;;;;;;11.73;6.68;;;22.20;45.40;;;;;;6159572;28;80679;-66
2021/12/08 09:29:05;;;;;;;11.23;6.78;;;22.20;45.40;;;;;;6151641;28;81560;-68
2021/12/08 09:32:08;;;;;;;10.68;5.80;;;22.20;45.40;;;;;;6148679;28;80764;-66
2021/12/08 09:35:10;;;;;;;14.13;6.15;;;22.20;45.50;;;;;;6152917;28;81425;-67
2021/12/08 09:38:10;;;;;;;12.45;6.35;;;22.30;45.50;;;;;;6155233;28;81747;-68
2021/12/08 09:41:11;;;;;;;8.80;6.40;;;22.30;45.00;;;;;;6151876;28;80295;-68
2021/12/08 09:44:11;;;;;;;8.90;5.97;;;22.30;45.00;;;;;;6154617;28;80531;-67
2021/12/08 09:47:12;;;;;;;12.65;6.72;;;22.30;45.00;;;;;;6154981;28;81801;-68
2021/12/08 09:50:12;;;;;;;9.07;6.20;;;22.30;44.00;;;;;;6149985;28;81400;-67
2021/12/08 09:53:13;;;;;;;10.13;6.32;;;22.30;44.40;;;;;;6147281;28;81326;-69
2021/12/08 09:56:15;;;;;;;10.07;6.32;;;22.30;43.70;;;;;;6156186;28;80254;-68
2021/12/08 09:59:16;;;;;;;9.45;5.53;;;22.20;43.20;;;;;;6158755;28;82263;-68
2021/12/08 10:02:18;;;;;;;10.15;6.38;;;22.20;43.10;;;;;;6148198;28;81203;-68
2021/12/08 10:05:19;;;;;;;10.02;6.38;;;22.20;42.50;;;;;;6146439;28;80820;-68
2021/12/08 10:08:19;;;;;;;13.85;6.72;;;22.20;42.50;;;;;;6156825;28;82476;-68
2021/12/08 10:11:20;;;;;;;13.93;7.75;;;22.20;42.20;;;;;;6155010;28;81451;-68
2021/12/08 10:14:21;;;;;;;11.00;6.63;;;22.20;41.60;;;;;;6152231;28;81565;-68
2021/12/08 10:17:21;;;;;;;10.52;6.68;;;22.20;41.50;;;;;;6147344;28;80431;-69
2021/12/08 10:20:22;;;;;;;11.93;6.80;;;22.20;41.50;;;;;;6149263;28;80423;-65
2021/12/08 10:23:23;;;;;;;11.70;7.10;;;22.20;41.30;;;;;;6156735;28;80287;-65
2021/12/08 10:26:24;;;;;;;10.18;6.78;;;22.20;41.20;;;;;;6153998;28;80684;-66
2021/12/08 10:29:25;;;;;;;10.50;6.53;;;22.10;41.20;;;;;;6155639;28;80657;-66
2021/12/08 10:32:25;;;;;;;13.38;7.88;;;22.10;41.00;;;;;;6156348;28;80344;-68
2021/12/08 10:35:26;;;;;;;10.55;6.88;;;22.20;41.30;;;;;;6156460;28;80617;-66
2021/12/08 10:38:26;;;;;;;12.90;7.45;;;22.20;41.80;;;;;;6153254;28;82101;-66
2021/12/08 10:41:27;;;;;;;23.45;8.93;;;22.30;42.00;;;;;;6142446;28;82509;-65
2021/12/08 10:44:27;;;;;;;39.50;13.65;;;22.30;42.10;;;;;;6154628;28;80518;-65
2021/12/08 10:47:28;;;;;;;63.88;20.08;;;22.30;42.80;;;;;;6158020;28;82688;-66
2021/12/08 10:57:07;;;;;;;74.30;23.88;;;22.40;43.70;;;;;;6151488;28;84160;-75
2021/12/08 11:00:08;;;;;;;71.97;22.75;;;22.30;44.20;;;;;;6146294;28;82784;-69
2021/12/08 11:03:08;;;;;;;69.85;23.08;;;22.40;43.60;;;;;;6150767;28;83201;-73
2021/12/08 11:06:09;;;;;;;54.22;18.42;;;22.40;43.90;;;;;;6153835;28;85944;-72
2021/12/08 11:09:10;;;;;;;53.17;18.42;;;22.40;43.60;;;;;;6154814;28;85055;-72
2021/12/08 11:12:10;;;;;;;53.00;16.85;;;22.40;43.60;;;;;;6159105;28;83494;-69
2021/12/08 11:15:11;;;;;;;44.28;15.70;;;22.40;43.10;;;;;;6158611;28;82880;-72
2021/12/08 11:18:11;;;;;;;33.65;12.43;;;22.30;43.20;;;;;;6155730;28;83035;-69
2021/12/08 11:21:16;;;;;;;34.13;13.63;;;22.30;42.80;;;;;;6162187;28;86808;-70
2021/12/08 11:24:21;;;;;;;27.20;11.95;;;22.40;42.90;;;;;;6160796;28;83313;-70
2021/12/08 11:27:21;;;;;;;28.58;11.07;;;22.40;43.70;;;;;;6154310;28;83853;-71
2021/12/08 11:30:26;;;;;;;22.23;9.32;;;22.40;43.90;;;;;;6159293;28;83046;-70
2021/12/08 11:33:26;;;;;;;21.55;8.93;;;22.40;44.40;;;;;;6160343;28;83007;-69
2021/12/08 11:36:27;;;;;;;22.08;9.70;;;22.40;44.10;;;;;;6159962;28;81415;-69
2021/12/08 11:39:28;;;;;;;20.45;8.82;;;22.30;44.40;;;;;;6148960;28;80237;-68
2021/12/08 11:42:29;;;;;;;14.43;7.53;;;22.30;45.00;;;;;;6169694;28;80931;-68
2021/12/08 11:45:30;;;;;;;17.38;8.20;;;22.30;44.60;;;;;;6158636;28;80481;-67
2021/12/08 11:48:30;;;;;;;17.67;6.85;;;22.40;44.80;;;;;;6171377;28;83571;-68
2021/12/08 11:51:31;;;;;;;13.68;6.78;;;22.30;45.00;;;;;;6159351;28;80402;-68
2021/12/08 11:54:32;;;;;;;13.93;6.93;;;22.40;45.20;;;;;;6161578;28;80517;-67
2021/12/08 11:57:36;;;;;;;11.73;7.28;;;22.40;44.60;;;;;;6159474;28;81025;-68
2021/12/08 12:00:39;;;;;;;13.20;6.97;;;22.30;44.50;;;;;;6142668;28;80402;-69
2021/12/08 12:03:39;;;;;;;11.95;6.90;;;22.30;44.30;;;;;;6160641;28;80912;-68
2021/12/08 12:06:40;;;;;;;15.20;7.80;;;22.30;44.10;;;;;;6159053;28;80731;-74
2021/12/08 12:09:40;;;;;;;13.38;6.78;;;22.20;44.40;;;;;;6155249;28;80510;-73
2021/12/08 12:12:41;;;;;;;14.15;6.47;;;22.20;44.50;;;;;;6141725;28;80512;-69
2021/12/08 12:15:44;;;;;;;12.85;6.50;;;22.20;44.90;;;;;;6158018;28;82194;-74
2021/12/08 12:18:44;;;;;;;10.10;6.22;;;22.30;45.20;;;;;;6159832;28;80602;-70
2021/12/08 12:21:45;;;;;;;14.55;6.88;;;22.20;44.90;;;;;;6157957;28;81111;-70
2021/12/08 12:24:45;;;;;;;10.60;6.28;;;22.30;45.50;;;;;;6153546;28;81420;-70
2021/12/08 12:27:46;;;;;;;13.98;6.82;;;22.30;45.40;;;;;;6161010;28;80842;-74
2021/12/08 12:30:47;;;;;;;9.38;5.80;;;22.30;45.30;;;;;;6158053;28;80798;-68
2021/12/08 12:33:47;;;;;;;10.07;6.47;;;22.30;45.70;;;;;;6150376;28;83029;-65
2021/12/08 12:36:48;;;;;;;10.50;5.60;;;22.30;45.40;;;;;;6157515;28;80462;-65
2021/12/08 12:39:48;;;;;;;8.15;5.15;;;22.20;45.50;;;;;;6153747;28;80544;-71
2021/12/08 12:42:49;;;;;;;8.52;5.38;;;22.30;45.50;;;;;;6154156;28;81300;-72
2021/12/08 12:45:49;;;;;;;9.02;5.53;;;22.20;45.10;;;;;;6145691;28;80818;-72
2021/12/08 12:48:51;;;;;;;6.72;4.95;;;22.30;45.10;;;;;;6155955;28;82732;-70
2021/12/08 12:51:51;;;;;;;9.43;5.75;;;22.20;44.60;;;;;;6143744;28;80247;-68
2021/12/08 12:54:52;;;;;;;8.15;5.32;;;22.20;44.50;;;;;;6151890;28;87541;-68
2021/12/08 12:57:52;;;;;;;6.70;5.22;;;22.20;44.60;;;;;;6145554;28;80606;-68
2021/12/08 13:00:53;;;;;;;8.63;5.47;;;22.20;44.70;;;;;;6151071;28;80457;-68
2021/12/08 13:03:54;;;;;;;8.68;5.03;;;22.20;44.90;;;;;;6144950;28;83033;-69
2021/12/08 13:06:56;;;;;;;8.95;4.75;;;22.20;45.00;;;;;;6163204;28;82083;-69
2021/12/08 13:09:57;;;;;;;7.68;5.15;;;22.10;45.20;;;;;;6155875;28;81126;-69
2021/12/08 13:12:57;;;;;;;6.60;4.10;;;22.20;45.20;;;;;;6157187;28;80293;-70
2021/12/08 13:15:58;;;;;;;7.00;5.15;;;22.10;45.30;;;;;;6150413;28;81047;-70
2021/12/08 13:18:58;;;;;;;7.55;4.68;;;22.10;45.60;;;;;;6150523;28;80586;-70
2021/12/08 13:21:59;;;;;;;8.73;5.18;;;22.10;45.40;;;;;;6164627;28;80418;-70
2021/12/08 13:24:59;;;;;;;6.30;4.35;;;22.10;45.40;;;;;;6157621;28;81021;-71
2021/12/08 13:28:00;;;;;;;7.85;4.60;;;22.10;45.60;;;;;;6164265;28;80386;-71
2021/12/08 13:31:00;;;;;;;7.40;5.03;;;22.00;45.30;;;;;;6150272;28;80790;-70
2021/12/08 13:34:02;;;;;;;8.52;5.15;;;22.10;45.00;;;;;;6153623;28;81359;-71
2021/12/08 13:37:03;;;;;;;7.07;4.40;;;22.10;45.00;;;;;;6153549;28;80252;-70
2021/12/08 13:40:03;;;;;;;6.25;4.35;;;22.10;45.10;;;;;;6155619;28;81342;-70
2021/12/08 13:43:05;;;;;;;8.27;4.70;;;22.10;45.20;;;;;;6153008;28;81427;-70
2021/12/08 13:46:06;;;;;;;6.28;4.10;;;22.10;44.90;;;;;;6153776;28;81357;-68
2021/12/08 13:49:06;;;;;;;7.50;4.93;;;22.10;45.20;;;;;;6156849;28;80377;-73
2021/12/08 13:52:07;;;;;;;6.50;4.50;;;22.00;45.10;;;;;;6152527;28;83500;-71
2021/12/08 13:55:07;;;;;;;6.07;3.97;;;22.00;44.70;;;;;;6150530;28;80428;-69
2021/12/08 13:58:11;;;;;;;6.80;4.80;;;22.10;44.70;;;;;;6153934;28;80736;-73
2021/12/08 14:01:11;;;;;;;7.53;5.38;;;22.10;44.80;;;;;;6158027;28;80270;-70
2021/12/08 14:04:12;;;;;;;8.02;5.03;;;22.00;44.50;;;;;;6156630;28;80298;-65
2021/12/08 14:07:12;;;;;;;8.70;6.03;;;22.00;44.60;;;;;;6147751;28;80204;-67
2021/12/08 14:10:13;;;;;;;10.80;5.55;;;22.00;44.70;;;;;;6154454;28;81385;-66
2021/12/08 14:13:14;;;;;;;8.68;5.93;;;22.00;44.50;;;;;;6157132;28;80327;-67
2021/12/08 14:16:14;;;;;;;9.70;5.60;;;22.00;44.40;;;;;;6154234;28;82459;-66
2021/12/08 14:19:15;;;;;;;9.95;6.50;;;22.10;44.60;;;;;;6155176;28;80526;-65
2021/12/08 14:22:15;;;;;;;10.23;6.88;;;22.10;44.10;;;;;;6159895;28;80480;-67
2021/12/08 14:25:16;;;;;;;10.00;6.80;;;22.10;43.80;;;;;;6153739;28;81236;-64
2021/12/08 14:28:16;;;;;;;10.13;5.78;;;22.20;43.90;;;;;;6156406;28;81630;-64
2021/12/08 14:31:17;;;;;;;8.48;5.57;;;22.20;44.10;;;;;;6153940;28;80681;-66
2021/12/08 14:34:17;;;;;;;8.23;5.63;;;22.30;44.30;;;;;;6156541;28;81814;-67
2021/12/08 14:37:18;;;;;;;9.25;6.07;;;22.30;43.90;;;;;;6142096;28;80590;-65
2021/12/08 14:40:20;;;;;;;8.48;5.85;;;22.30;43.80;;;;;;6153682;28;81092;-66
2021/12/08 14:43:21;;;;;;;14.90;6.40;;;22.30;44.00;;;;;;6155274;28;80373;-66
2021/12/08 14:46:24;;;;;;;9.95;6.13;;;22.40;44.20;;;;;;6158006;28;80869;-66
2021/12/08 14:49:29;;;;;;;8.57;5.68;;;22.50;44.20;;;;;;6156220;28;80745;-65
2021/12/08 14:52:30;;;;;;;10.25;6.13;;;22.50;44.20;;;;;;6150316;28;80578;-66
2021/12/08 14:55:32;;;;;;;10.50;6.80;;;22.60;44.10;;;;;;6153872;28;81420;-66
2021/12/08 14:58:33;;;;;;;9.15;6.22;;;22.60;44.10;;;;;;6157504;28;82909;-65
2021/12/08 15:01:33;;;;;;;9.20;6.03;;;22.60;44.00;;;;;;6149878;28;80430;-65
2021/12/08 15:04:34;;;;;;;10.95;7.00;;;22.70;43.80;;;;;;6157061;28;81330;-65
2021/12/08 15:07:34;;;;;;;10.68;6.57;;;22.70;43.90;;;;;;6155865;28;80368;-66
2021/12/08 15:10:35;;;;;;;9.02;6.55;;;22.70;43.50;;;;;;6149763;28;80684;-65
2021/12/08 15:13:36;;;;;;;9.80;6.70;;;22.70;43.70;;;;;;6154843;28;82264;-66
2021/12/08 15:16:36;;;;;;;9.82;6.63;;;22.70;43.40;;;;;;6149164;28;80876;-66
2021/12/08 15:19:37;;;;;;;12.25;7.78;;;22.70;43.30;;;;;;6156086;28;80055;-67
2021/12/08 15:22:41;;;;;;;10.43;7.10;;;22.70;43.10;;;;;;6153204;28;81350;-65
2021/12/08 15:25:41;;;;;;;9.55;7.03;;;22.80;43.40;;;;;;6150609;28;80393;-65
2021/12/08 15:28:43;;;;;;;9.48;6.55;;;22.80;43.30;;;;;;6149802;28;80790;-66
2021/12/08 15:31:43;;;;;;;9.43;6.75;;;22.80;43.10;;;;;;6152338;28;80472;-66
2021/12/08 15:34:44;;;;;;;11.30;6.70;;;22.80;43.30;;;;;;6152168;28;81086;-67
2021/12/08 15:37:44;;;;;;;12.02;7.40;;;22.80;43.40;;;;;;6155658;28;81259;-67
2021/12/08 15:40:45;;;;;;;9.48;6.32;;;22.80;43.70;;;;;;6156416;28;80576;-66
2021/12/08 15:43:45;;;;;;;10.55;7.35;;;22.90;43.40;;;;;;6158260;28;80443;-68
2021/12/08 15:46:46;;;;;;;10.05;6.88;;;22.90;43.00;;;;;;6157477;28;82808;-69
2021/12/08 15:49:46;;;;;;;10.43;6.68;;;22.90;43.30;;;;;;6155893;28;80816;-67
2021/12/08 15:52:47;;;;;;;9.05;6.40;;;22.90;43.30;;;;;;6149148;28;81423;-68
2021/12/08 15:55:47;;;;;;;13.43;7.05;;;22.90;43.50;;;;;;6147563;28;80770;-68
2021/12/08 15:58:48;;;;;;;11.07;7.57;;;22.90;43.30;;;;;;6159567;28;81074;-68
2021/12/08 16:01:51;;;;;;;10.07;7.25;;;22.90;43.30;;;;;;6155380;28;80027;-67
2021/12/08 16:04:51;;;;;;;8.68;5.80;;;22.80;43.40;;;;;;6154762;28;80429;-67
2021/12/08 16:07:53;;;;;;;10.05;7.05;;;22.80;43.60;;;;;;6156689;28;80245;-69
2021/12/08 16:10:54;;;;;;;8.20;6.10;;;22.80;44.00;;;;;;6161217;28;80653;-67
2021/12/08 16:13:55;;;;;;;9.65;6.60;;;22.80;44.00;;;;;;6153392;28;80701;-69